createdAt,value
2023-04-11T00:02:01.918Z,64.23
2023-04-11T00:04:29.067Z,64.26
2023-04-11T00:06:56.783Z,64.36
2023-04-11T00:09:23.763Z,64.37
2023-04-11T00:11:50.744Z,64.78
2023-04-11T00:14:17.752Z,64.33
2023-04-11T00:16:44.831Z,64.70
2023-04-11T00:19:11.743Z,64.64
2023-04-11T00:21:40.280Z,64.85
2023-04-11T00:24:10.072Z,64.81
2023-04-11T00:26:38.764Z,64.88
2023-04-11T00:29:05.683Z,64.73
2023-04-11T00:31:33.278Z,64.39
2023-04-11T00:34:00.452Z,64.88
2023-04-11T00:36:31.960Z,64.99
2023-04-11T00:39:01.391Z,64.72
2023-04-11T00:41:28.353Z,64.86
2023-04-11T00:43:57.781Z,64.43
2023-04-11T00:46:25.657Z,65.29
2023-04-11T00:48:53.048Z,64.64
2023-04-11T00:51:20.620Z,64.66
2023-04-11T00:53:47.685Z,64.56
2023-04-11T00:56:14.934Z,64.74
2023-04-11T00:58:43.974Z,64.34
2023-04-11T01:01:10.925Z,64.03
2023-04-11T01:03:39.598Z,64.20
2023-04-11T01:06:09.703Z,64.25
2023-04-11T01:08:38.788Z,64.21
2023-04-11T01:11:06.607Z,63.58
2023-04-11T01:13:34.914Z,63.50
2023-04-11T01:16:02.517Z,63.16
2023-04-11T01:18:30.096Z,62.84
2023-04-11T01:20:57.617Z,63.47
2023-04-11T01:23:25.776Z,62.90
2023-04-11T01:25:53.068Z,62.98
2023-04-11T01:28:20.732Z,63.41
2023-04-11T01:30:48.457Z,63.24
2023-04-11T01:33:16.605Z,63.35
2023-04-11T01:35:43.719Z,63.26
2023-04-11T01:38:11.377Z,62.58
2023-04-11T01:40:38.587Z,62.61
2023-04-11T01:43:08.277Z,62.00
2023-04-11T01:45:41.896Z,61.91
2023-04-11T01:48:09.010Z,61.50
2023-04-11T01:50:36.071Z,61.20
2023-04-11T01:53:03.116Z,60.72
2023-04-11T01:55:30.024Z,60.25
2023-04-11T01:57:57.034Z,60.02
2023-04-11T02:00:24.293Z,59.65
2023-04-11T02:02:51.690Z,58.60
2023-04-11T02:05:18.732Z,58.28
2023-04-11T02:07:45.691Z,57.94
2023-04-11T02:10:17.805Z,57.89
2023-04-11T02:12:44.741Z,57.68
2023-04-11T02:15:13.366Z,57.38
2023-04-11T02:17:45.414Z,57.28
2023-04-11T02:20:14.192Z,57.03
2023-04-11T02:22:41.781Z,57.32
2023-04-11T02:25:09.065Z,57.31
2023-04-11T02:27:36.248Z,57.26
2023-04-11T02:30:05.993Z,57.96
2023-04-11T02:32:40.410Z,57.59
2023-04-11T02:35:08.256Z,57.92
2023-04-11T02:37:35.994Z,57.91
2023-04-11T02:40:04.623Z,57.53
2023-04-11T02:42:31.548Z,57.26
2023-04-11T02:44:59.199Z,56.79
2023-04-11T02:47:28.632Z,56.48
2023-04-11T02:50:00.421Z,56.36
2023-04-11T02:52:33.802Z,56.18
2023-04-11T02:55:01.118Z,56.34
2023-04-11T02:57:28.414Z,56.39
2023-04-11T02:59:56.642Z,56.49
2023-04-11T03:02:30.297Z,56.39
2023-04-11T03:05:03.905Z,56.25
2023-04-11T03:07:33.676Z,56.23
2023-04-11T03:10:00.685Z,56.10
2023-04-11T03:12:27.693Z,55.98
2023-04-11T03:14:59.593Z,55.93
2023-04-11T03:17:26.489Z,55.92
2023-04-11T03:19:54.261Z,55.55
2023-04-11T03:22:23.910Z,55.32
2023-04-11T03:24:51.065Z,55.09
2023-04-11T03:27:20.882Z,55.57
2023-04-11T03:29:51.984Z,55.76
2023-04-11T03:32:26.832Z,55.71
2023-04-11T03:34:53.829Z,55.67
2023-04-11T03:37:22.300Z,55.84
2023-04-11T03:39:49.303Z,56.01
2023-04-11T03:42:16.404Z,56.04
2023-04-11T03:44:44.523Z,56.46
2023-04-11T03:47:12.052Z,56.36
2023-04-11T03:49:42.889Z,56.31
2023-04-11T03:52:10.064Z,56.55
2023-04-11T03:54:38.481Z,56.61
2023-04-11T03:57:09.286Z,56.67
2023-04-11T03:59:36.254Z,56.98
2023-04-11T04:02:07.672Z,57.24
2023-04-11T04:04:40.512Z,57.20
2023-04-11T04:07:22.696Z,57.20
2023-04-11T04:09:52.644Z,57.21
2023-04-11T04:12:21.933Z,57.28
2023-04-11T04:15:07.735Z,57.58
2023-04-11T04:17:35.381Z,57.81
2023-04-11T04:20:09.888Z,57.83
2023-04-11T04:22:38.541Z,57.70
2023-04-11T04:25:06.216Z,57.62
2023-04-11T04:27:35.432Z,57.86
2023-04-11T04:30:04.548Z,58.01
2023-04-11T04:32:59.241Z,57.70
2023-04-11T04:35:27.772Z,58.10
2023-04-11T04:37:58.124Z,57.95
2023-04-11T04:40:40.086Z,58.02
2023-04-11T04:43:09.236Z,58.48
2023-04-11T04:45:46.806Z,58.65
2023-04-11T04:48:19.291Z,59.14
2023-04-11T04:50:46.268Z,58.54
2023-04-11T04:53:13.922Z,58.84
2023-04-11T04:55:46.510Z,58.56
2023-04-11T04:58:13.997Z,58.76
2023-04-11T05:00:41.321Z,58.99
2023-04-11T05:03:17.604Z,59.31
2023-04-11T05:05:46.021Z,59.67
2023-04-11T05:08:13.946Z,59.63
2023-04-11T05:10:41.054Z,59.67
2023-04-11T05:13:10.479Z,59.32
2023-04-11T05:15:37.857Z,59.50
2023-04-11T05:18:04.895Z,59.66
2023-04-11T05:20:35.009Z,59.51
2023-04-11T05:23:01.998Z,59.81
2023-04-11T05:25:29.586Z,59.53
2023-04-11T05:27:56.681Z,59.51
2023-04-11T05:30:25.472Z,59.43
2023-04-11T05:32:52.780Z,59.00
2023-04-11T05:35:21.518Z,59.07
2023-04-11T05:37:54.414Z,58.84
2023-04-11T05:40:21.366Z,58.68
2023-04-11T05:42:48.950Z,58.13
2023-04-11T05:45:16.050Z,57.92
2023-04-11T05:47:43.152Z,57.76
2023-04-11T05:50:11.137Z,57.59
2023-04-11T05:52:38.154Z,57.08
2023-04-11T05:55:07.457Z,56.37
2023-04-11T05:57:34.482Z,55.80
2023-04-11T06:00:02.192Z,54.82
2023-04-11T06:02:40.713Z,54.03
2023-04-11T06:05:08.669Z,53.50
2023-04-11T06:07:36.044Z,52.35
2023-04-11T06:10:05.980Z,51.71
2023-04-11T06:12:33.030Z,50.50
2023-04-11T06:15:00.594Z,49.97
2023-04-11T06:17:27.752Z,49.17
2023-04-11T06:19:54.934Z,47.24
2023-04-11T06:22:22.064Z,47.06
2023-04-11T06:24:49.221Z,46.50
2023-04-11T06:27:16.506Z,46.52
2023-04-11T06:29:46.174Z,45.51
2023-04-11T06:32:13.889Z,45.25
2023-04-11T06:34:41.482Z,45.36
2023-04-11T06:37:08.721Z,44.08
2023-04-11T06:39:36.299Z,43.83
2023-04-11T06:42:03.682Z,42.89
2023-04-11T06:44:32.925Z,41.04
2023-04-11T06:46:59.990Z,40.72
2023-04-11T06:49:31.383Z,40.11
2023-04-11T06:51:59.599Z,40.00
2023-04-11T06:54:26.600Z,38.98
2023-04-11T06:56:53.528Z,38.36
2023-04-11T06:59:20.880Z,37.94
2023-04-11T07:01:50.307Z,36.87
2023-04-11T07:04:17.517Z,36.36
2023-04-11T07:06:44.694Z,34.90
2023-04-11T07:09:14.889Z,34.81
2023-04-11T07:11:41.968Z,34.83
2023-04-11T07:14:08.948Z,34.16
2023-04-11T07:16:38.903Z,33.01
2023-04-11T07:19:06.143Z,33.33
2023-04-11T07:21:33.504Z,32.67
2023-04-11T07:24:04.053Z,31.63
2023-04-11T07:26:32.830Z,31.86
2023-04-11T07:29:00.188Z,30.31
2023-04-11T07:31:27.645Z,29.86
2023-04-11T07:33:55.561Z,28.99
2023-04-11T07:36:22.941Z,28.68
2023-04-11T07:38:50.162Z,27.96
2023-04-11T07:41:17.213Z,27.29
2023-04-11T07:43:44.187Z,27.46
2023-04-11T07:46:12.379Z,27.77
2023-04-11T07:48:39.579Z,27.60
2023-04-11T07:51:06.657Z,28.24
2023-04-11T07:53:34.099Z,27.93
2023-04-11T07:56:01.275Z,28.28
2023-04-11T07:58:32.193Z,28.63
2023-04-11T08:00:59.247Z,28.48
2023-04-11T08:03:27.204Z,28.04
2023-04-11T08:05:54.535Z,29.20
2023-04-11T08:08:21.675Z,27.80
2023-04-11T08:10:50.694Z,26.07
2023-04-11T08:13:18.972Z,25.65
2023-04-11T08:15:45.963Z,25.69
2023-04-11T08:18:12.996Z,25.05
2023-04-11T08:20:40.926Z,24.33
2023-04-11T08:23:09.564Z,23.47
2023-04-11T08:25:37.002Z,23.44
2023-04-11T08:28:05.282Z,22.98
2023-04-11T08:30:32.541Z,22.87
2023-04-11T08:32:59.735Z,22.48
2023-04-11T08:35:26.798Z,22.49
2023-04-11T08:37:54.957Z,22.32
2023-04-11T08:40:23.447Z,24.58
2023-04-11T08:42:58.301Z,24.54
2023-04-11T08:45:25.344Z,24.50
2023-04-11T08:47:52.733Z,24.70
2023-04-11T08:50:19.732Z,24.57
2023-04-11T08:52:50.830Z,24.39
2023-04-11T08:55:17.731Z,24.44
2023-04-11T08:57:44.622Z,24.64
2023-04-11T09:00:15.368Z,24.25
2023-04-11T09:03:05.595Z,24.78
2023-04-11T09:05:40.906Z,25.56
2023-04-11T09:08:13.197Z,27.04
2023-04-11T09:10:41.983Z,28.90
2023-04-11T09:13:24.407Z,29.39
2023-04-11T09:16:05.817Z,29.61
2023-04-11T09:18:38.421Z,28.80
2023-04-11T09:21:07.884Z,29.02
2023-04-11T09:23:35.837Z,28.21
2023-04-11T09:26:05.330Z,29.01
2023-04-11T09:28:42.866Z,28.38
2023-04-11T09:31:13.277Z,28.37
2023-04-11T09:33:54.026Z,27.60
2023-04-11T09:36:23.322Z,27.60
2023-04-11T09:38:51.472Z,27.48
2023-04-11T09:41:32.586Z,27.10
2023-04-11T09:44:00.357Z,27.73
2023-04-11T09:46:27.470Z,29.39
2023-04-11T09:48:55.428Z,28.98
2023-04-11T09:51:32.340Z,28.98
2023-04-11T09:54:03.820Z,29.46
2023-04-11T09:56:31.866Z,29.36
2023-04-11T09:59:01.087Z,29.74
2023-04-11T10:01:28.318Z,29.79
2023-04-11T10:03:56.781Z,30.47
2023-04-11T10:06:41.374Z,30.85
2023-04-11T10:09:14.001Z,31.15
2023-04-11T10:11:43.273Z,31.85
2023-04-11T10:14:38.818Z,31.89
2023-04-11T10:17:24.386Z,33.41
2023-04-11T10:19:57.735Z,33.93
2023-04-11T10:22:43.660Z,34.63
2023-04-11T10:25:21.938Z,35.42
2023-04-11T10:27:53.749Z,36.09
2023-04-11T10:30:45.325Z,37.36
2023-04-11T10:33:19.474Z,37.71
2023-04-11T10:36:12.526Z,38.63
2023-04-11T10:38:48.859Z,39.18
2023-04-11T10:41:19.286Z,39.51
2023-04-11T10:43:47.149Z,40.13
2023-04-11T10:46:25.503Z,40.98
2023-04-11T10:49:05.544Z,41.48
2023-04-11T10:51:34.272Z,41.69
2023-04-11T10:54:02.157Z,42.16
2023-04-11T10:56:49.026Z,42.26
2023-04-11T10:59:36.959Z,42.52
2023-04-11T11:02:04.298Z,42.38
2023-04-11T11:04:35.705Z,42.83
2023-04-11T11:07:05.048Z,42.98
2023-04-11T11:09:32.900Z,43.52
2023-04-11T11:12:10.799Z,44.11
2023-04-11T11:14:39.471Z,44.29
2023-04-11T11:17:06.982Z,44.97
2023-04-11T11:19:34.779Z,45.40
2023-04-11T11:22:06.330Z,45.59
2023-04-11T11:24:33.278Z,46.39
2023-04-11T11:27:00.678Z,45.90
2023-04-11T11:29:33.989Z,46.13
2023-04-11T11:32:04.082Z,46.40
2023-04-11T11:34:35.241Z,47.04
2023-04-11T11:37:06.875Z,46.48
2023-04-11T11:39:34.850Z,47.28
2023-04-11T11:42:02.154Z,47.44
2023-04-11T11:44:31.267Z,47.93
2023-04-11T11:47:05.542Z,48.36
2023-04-11T11:49:52.487Z,48.76
2023-04-11T11:52:36.588Z,49.77
2023-04-11T11:57:54.337Z,50.24
2023-04-11T12:00:26.265Z,50.73
2023-04-11T12:02:54.926Z,50.73
2023-04-11T12:05:25.486Z,51.58
2023-04-11T12:07:56.560Z,51.99
2023-04-11T12:10:23.822Z,51.35
2023-04-11T12:12:53.306Z,51.30
2023-04-11T12:15:23.408Z,51.72
2023-04-11T12:17:55.193Z,52.20
2023-04-11T12:20:24.141Z,51.88
2023-04-11T12:22:55.503Z,52.26
2023-04-11T12:25:23.264Z,52.64
2023-04-11T12:27:50.441Z,54.06
2023-04-11T12:30:18.169Z,54.67
2023-04-11T12:32:48.588Z,54.75
2023-04-11T12:35:15.749Z,54.13
2023-04-11T12:37:42.911Z,53.93
2023-04-11T12:40:13.053Z,53.58
2023-04-11T12:42:55.151Z,53.27
2023-04-11T12:45:24.050Z,53.01
2023-04-11T12:47:51.307Z,52.97
2023-04-11T12:50:18.507Z,53.32
2023-04-11T12:52:45.767Z,53.04
2023-04-11T12:55:14.198Z,52.57
2023-04-11T12:57:42.537Z,52.61
2023-04-11T13:00:14.072Z,52.96
2023-04-11T13:02:44.434Z,53.22
2023-04-11T13:05:15.551Z,53.45
2023-04-11T13:07:45.434Z,55.16
2023-04-11T13:10:14.217Z,53.99
2023-04-11T13:12:45.755Z,53.99
2023-04-11T13:15:14.911Z,54.77
2023-04-11T13:17:42.610Z,53.96
2023-04-11T13:20:11.051Z,53.59
2023-04-11T13:22:39.302Z,53.31
2023-04-11T13:25:07.101Z,51.88
2023-04-11T13:27:34.575Z,51.99
2023-04-11T13:30:02.140Z,51.01
2023-04-11T13:32:29.227Z,50.64
2023-04-11T13:34:56.838Z,50.15
2023-04-11T13:37:23.871Z,49.84
2023-04-11T13:39:50.832Z,48.56
2023-04-11T13:42:17.833Z,48.83
2023-04-11T13:44:44.827Z,48.84
2023-04-11T13:47:11.925Z,48.73
2023-04-11T13:49:39.047Z,48.41
2023-04-11T13:52:06.030Z,49.07
2023-04-11T13:54:33.031Z,49.03
2023-04-11T13:57:00.404Z,49.57
2023-04-11T13:59:27.592Z,49.10
2023-04-11T14:01:54.788Z,49.67
2023-04-11T14:04:22.544Z,49.92
2023-04-11T14:06:49.695Z,50.05
2023-04-11T14:09:16.646Z,50.24
2023-04-11T14:11:43.870Z,50.70
2023-04-11T14:14:11.207Z,51.43
2023-04-11T14:16:38.314Z,51.92
2023-04-11T14:19:05.785Z,52.04
2023-04-11T14:21:32.943Z,52.13
2023-04-11T14:23:59.986Z,52.37
2023-04-11T14:26:27.086Z,53.41
2023-04-11T14:28:54.068Z,53.18
2023-04-11T14:31:21.301Z,53.73
2023-04-11T14:33:48.416Z,53.26
2023-04-11T14:36:15.759Z,51.53
2023-04-11T14:38:42.733Z,51.54
2023-04-11T14:41:10.619Z,50.27
2023-04-11T14:43:37.598Z,50.00
2023-04-11T14:46:04.786Z,49.22
2023-04-11T14:48:31.791Z,49.81
2023-04-11T14:50:58.936Z,49.51
2023-04-11T14:53:25.904Z,49.21
2023-04-11T14:55:52.980Z,49.25
2023-04-11T14:58:20.637Z,49.55
2023-04-11T15:00:47.599Z,49.04
2023-04-11T15:03:15.032Z,49.07
2023-04-11T15:05:42.075Z,49.73
2023-04-11T15:08:09.105Z,50.13
2023-04-11T15:10:36.137Z,50.74
2023-04-11T15:13:03.899Z,50.29
2023-04-11T15:15:31.172Z,50.79
2023-04-11T15:18:21.029Z,50.89
2023-04-11T15:20:48.554Z,50.89
2023-04-11T15:23:15.571Z,50.65
2023-04-11T15:25:42.696Z,50.48
2023-04-11T15:28:09.831Z,50.74
2023-04-11T15:30:47.456Z,50.27
2023-04-11T15:33:16.086Z,50.41
2023-04-11T15:35:43.808Z,50.60
2023-04-11T15:38:12.122Z,50.79
2023-04-11T15:40:39.598Z,50.49
2023-04-11T15:43:07.398Z,50.57
2023-04-11T15:45:36.030Z,50.25
2023-04-11T15:48:03.984Z,50.36
2023-04-11T15:50:35.308Z,50.80
2023-04-11T15:53:02.357Z,50.61
2023-04-11T15:55:29.497Z,50.36
2023-04-11T15:57:57.041Z,50.04
2023-04-11T16:00:24.172Z,50.02
2023-04-11T16:02:51.516Z,50.19
2023-04-11T16:05:20.968Z,50.06
2023-04-11T16:07:48.572Z,49.62
2023-04-11T16:10:15.635Z,50.02
2023-04-11T16:12:42.589Z,49.60
2023-04-11T16:15:09.714Z,49.39
2023-04-11T16:17:36.705Z,49.17
2023-04-11T16:20:09.219Z,48.99
2023-04-11T16:22:37.744Z,49.52
2023-04-11T16:25:06.207Z,49.38
2023-04-11T16:27:33.374Z,49.61
2023-04-11T16:30:02.066Z,49.02
2023-04-11T16:32:29.116Z,49.27
2023-04-11T16:34:57.901Z,48.90
2023-04-11T16:37:25.153Z,49.33
2023-04-11T16:39:52.508Z,49.32
2023-04-11T16:42:19.758Z,49.24
2023-04-11T16:44:46.875Z,49.16
2023-04-11T16:47:14.074Z,49.13
2023-04-11T16:49:41.190Z,49.05
2023-04-11T16:52:08.507Z,49.08
2023-04-11T16:54:35.656Z,49.38
2023-04-11T16:57:03.286Z,48.73
2023-04-11T16:59:30.635Z,48.76
2023-04-11T17:01:57.889Z,48.23
2023-04-11T17:04:25.008Z,47.71
2023-04-11T17:06:52.072Z,47.19
2023-04-11T17:09:19.324Z,46.95
2023-04-11T17:11:46.288Z,45.87
2023-04-11T17:14:13.993Z,46.10
2023-04-11T17:16:41.279Z,45.77
2023-04-11T17:19:08.294Z,45.12
2023-04-11T17:21:35.732Z,44.65
2023-04-11T17:24:03.060Z,44.21
2023-04-11T17:26:30.003Z,44.03
2023-04-11T17:28:57.101Z,43.60
2023-04-11T17:31:24.828Z,43.53
2023-04-11T17:33:51.900Z,43.55
2023-04-11T17:36:18.924Z,42.86
2023-04-11T17:38:46.303Z,43.24
2023-04-11T17:41:15.424Z,42.89
2023-04-11T17:43:43.774Z,42.82
2023-04-11T17:46:10.818Z,43.32
2023-04-11T17:48:37.910Z,42.89
2023-04-11T17:51:08.084Z,42.61
2023-04-11T17:53:35.319Z,42.86
2023-04-11T17:56:06.167Z,42.83
2023-04-11T17:58:33.883Z,42.77
2023-04-11T18:01:01.037Z,42.84
2023-04-11T18:03:28.508Z,42.59
2023-04-11T18:05:56.444Z,42.38
2023-04-11T18:08:36.159Z,42.38
2023-04-11T18:11:11.077Z,42.44
2023-04-11T18:13:38.061Z,42.02
2023-04-11T18:16:05.242Z,41.99
2023-04-11T18:18:32.218Z,42.53
2023-04-11T18:21:07.136Z,42.37
2023-04-11T18:23:35.182Z,42.37
2023-04-11T18:26:02.314Z,42.79
2023-04-11T18:28:29.626Z,42.97
2023-04-11T18:30:56.929Z,42.85
2023-04-11T18:33:24.162Z,43.26
2023-04-11T18:35:51.895Z,43.60
2023-04-11T18:38:19.252Z,44.07
2023-04-11T18:40:46.390Z,44.38
2023-04-11T18:43:13.617Z,45.13
2023-04-11T18:45:42.366Z,45.42
2023-04-11T18:48:09.932Z,45.88
2023-04-11T18:50:43.172Z,46.52
2023-04-11T18:55:40.046Z,47.56
2023-04-11T18:58:09.125Z,47.83
2023-04-11T19:00:39.405Z,48.43
2023-04-11T19:03:14.885Z,48.92
2023-04-11T19:05:43.912Z,49.52
2023-04-11T19:08:11.257Z,49.56
2023-04-11T19:10:38.440Z,49.56
2023-04-11T19:13:06.476Z,49.56
2023-04-11T19:15:33.522Z,49.96
2023-04-11T19:18:00.857Z,50.06
2023-04-11T19:20:28.404Z,50.53
2023-04-11T19:22:55.917Z,50.43
2023-04-11T19:25:23.293Z,50.71
2023-04-11T19:27:51.780Z,51.04
2023-04-11T19:30:19.766Z,51.64
2023-04-11T19:32:47.870Z,51.27
2023-04-11T19:35:15.733Z,51.88
2023-04-11T19:37:43.277Z,52.15
2023-04-11T19:40:11.329Z,52.83
2023-04-11T19:42:40.034Z,52.29
2023-04-11T19:45:09.300Z,52.62
2023-04-11T19:47:36.423Z,52.59
2023-04-11T19:50:03.712Z,53.34
2023-04-11T19:52:30.958Z,53.44
2023-04-11T19:54:57.999Z,53.52
2023-04-11T19:57:28.985Z,53.36
2023-04-11T19:59:57.854Z,52.93
2023-04-11T20:02:26.404Z,52.99
2023-04-11T20:04:56.261Z,52.96
2023-04-11T20:07:24.156Z,53.00
2023-04-11T20:09:51.811Z,53.83
2023-04-11T20:12:19.361Z,54.06
2023-04-11T20:14:46.320Z,53.58
2023-04-11T20:17:13.296Z,54.12
2023-04-11T20:19:41.804Z,53.41
2023-04-11T20:22:13.567Z,54.05
2023-04-11T20:24:40.709Z,54.81
2023-04-11T20:27:07.706Z,53.94
2023-04-11T20:29:34.673Z,54.01
2023-04-11T20:32:02.600Z,54.15
2023-04-11T20:34:29.716Z,53.95
2023-04-11T20:36:56.766Z,53.12
2023-04-11T20:39:24.028Z,53.35
2023-04-11T20:41:52.502Z,53.53
2023-04-11T20:44:23.750Z,53.24
2023-04-11T20:46:51.276Z,53.52
2023-04-11T20:49:18.256Z,54.01
2023-04-11T20:51:46.431Z,53.21
2023-04-11T20:54:13.567Z,53.27
2023-04-11T20:56:41.382Z,53.62
2023-04-11T20:59:12.643Z,54.29
2023-04-11T21:01:40.670Z,53.59
2023-04-11T21:04:09.947Z,53.83
2023-04-11T21:06:37.258Z,53.31
2023-04-11T21:09:05.413Z,54.06
2023-04-11T21:11:33.211Z,53.42
2023-04-11T21:14:00.637Z,53.60
2023-04-11T21:16:27.671Z,53.32
2023-04-11T21:18:55.022Z,53.55
2023-04-11T21:21:22.007Z,53.79
2023-04-11T21:23:49.091Z,53.72
2023-04-11T21:26:16.094Z,53.12
2023-04-11T21:28:43.000Z,54.15
2023-04-11T21:31:10.021Z,54.15
2023-04-11T21:33:37.113Z,53.93
2023-04-11T21:36:04.326Z,53.19
2023-04-11T21:38:31.634Z,53.40
2023-04-11T21:40:59.016Z,52.79
2023-04-11T21:43:26.034Z,53.02
2023-04-11T21:45:53.560Z,52.61
2023-04-11T21:48:20.588Z,52.68
2023-04-11T21:50:48.473Z,53.05
2023-04-11T21:53:15.587Z,52.77
2023-04-11T21:55:46.843Z,52.72
2023-04-11T21:58:28.040Z,52.92
2023-04-11T22:00:56.523Z,52.71
2023-04-11T22:03:24.184Z,52.98
2023-04-11T22:05:52.562Z,52.69
2023-04-11T22:08:22.796Z,52.94
2023-04-11T22:10:50.955Z,53.21
2023-04-11T22:13:19.849Z,53.15
2023-04-11T22:15:48.932Z,52.77
2023-04-11T22:18:16.085Z,53.22
2023-04-11T22:20:44.282Z,53.23
2023-04-11T22:23:12.907Z,54.11
2023-04-11T22:25:44.120Z,53.60
2023-04-11T22:28:14.099Z,53.71
2023-04-11T22:30:41.481Z,53.29
2023-04-11T22:33:09.134Z,53.66
2023-04-11T22:35:36.118Z,53.59
2023-04-11T22:38:03.937Z,53.33
2023-04-11T22:40:31.107Z,53.53
2023-04-11T22:42:57.973Z,53.82
2023-04-11T22:45:24.975Z,53.89
2023-04-11T22:47:56.306Z,54.08
2023-04-11T22:50:23.711Z,53.69
2023-04-11T22:52:50.808Z,53.78
2023-04-11T22:55:20.135Z,54.32
2023-04-11T22:57:47.175Z,53.98
2023-04-11T23:00:16.541Z,53.99
2023-04-11T23:02:44.242Z,53.95
2023-04-11T23:05:11.506Z,54.10
2023-04-11T23:07:38.874Z,54.20
2023-04-11T23:10:09.128Z,54.22
2023-04-11T23:12:36.474Z,54.33
2023-04-11T23:15:04.290Z,54.57
2023-04-11T23:17:31.269Z,54.43
2023-04-11T23:19:59.712Z,54.22
2023-04-11T23:22:26.779Z,54.32
2023-04-11T23:24:53.944Z,54.38
2023-04-11T23:27:22.173Z,54.42
2023-04-11T23:29:52.819Z,54.27
2023-04-11T23:32:20.249Z,54.21
2023-04-11T23:34:47.309Z,54.55
2023-04-11T23:37:14.324Z,54.30
2023-04-11T23:39:41.252Z,54.43
2023-04-11T23:42:08.218Z,54.42
2023-04-11T23:44:35.297Z,54.86
2023-04-11T23:47:02.283Z,54.41
2023-04-11T23:49:29.267Z,55.46
2023-04-11T23:51:56.577Z,55.10
2023-04-11T23:54:23.586Z,54.94
2023-04-11T23:56:50.955Z,54.85
2023-04-11T23:59:17.898Z,55.04
